Ober, Indiana
Current Conditions -  °F | °C
As of 1:55 AM on Friday 31 Oct 2014 (Local Time) from KOXI Reporting Station
Overcast Overcast  
Wind Chill: 40°   Ceiling: 5500
Heat Index: 43°   Visibility: 10mi
Dew Point: 36°   Wind: 6mph
Humidity: 77%   Direction: 260°W
Pressure: 30"   Gusts: NA
Location:  41.2954°N, 86.6039°W
Report Text: KOXI 310655Z AUTO 26005KT 10SM OVC055 06/02 A3000 RMK AO1 T00620024
Loading
Personal Weather Stations






























Interactive Weather Map
Tropical Storm Tracking
New forecast layout! Learn more

10-Day Weather Forecast

Advertisements
Track Severe Weather on mobile